sensor_id;sensor_type;location;lat;lon;timestamp;P1;durP1;ratioP1;P2;durP2;ratioP2
47784;SDS011;35233;55.686;37.848;2023-04-03T00:01:02;6.28;;;3.75;;
47784;SDS011;35233;55.686;37.848;2023-04-03T00:03:28;6.95;;;4.30;;
47784;SDS011;35233;55.686;37.848;2023-04-03T00:05:53;5.32;;;3.80;;
47784;SDS011;35233;55.686;37.848;2023-04-03T00:08:19;6.50;;;4.10;;
47784;SDS011;35233;55.686;37.848;2023-04-03T00:10:45;5.57;;;3.80;;
47784;SDS011;35233;55.686;37.848;2023-04-03T00:13:12;8.23;;;4.10;;
47784;SDS011;35233;55.686;37.848;2023-04-03T00:15:38;6.30;;;3.90;;
47784;SDS011;35233;55.686;37.848;2023-04-03T00:18:05;6.90;;;4.32;;
47784;SDS011;35233;55.686;37.848;2023-04-03T00:20:31;7.07;;;3.50;;
47784;SDS011;35233;55.686;37.848;2023-04-03T00:22:58;5.97;;;4.13;;
47784;SDS011;35233;55.686;37.848;2023-04-03T00:25:24;7.13;;;4.03;;
47784;SDS011;35233;55.686;37.848;2023-04-03T00:27:49;6.38;;;4.10;;
47784;SDS011;35233;55.686;37.848;2023-04-03T00:30:17;5.85;;;3.90;;
47784;SDS011;35233;55.686;37.848;2023-04-03T00:32:43;6.35;;;4.15;;
47784;SDS011;35233;55.686;37.848;2023-04-03T00:35:09;6.72;;;4.05;;
47784;SDS011;35233;55.686;37.848;2023-04-03T00:37:35;5.68;;;3.92;;
47784;SDS011;35233;55.686;37.848;2023-04-03T00:40:02;6.80;;;3.80;;
47784;SDS011;35233;55.686;37.848;2023-04-03T00:42:28;4.82;;;3.70;;
47784;SDS011;35233;55.686;37.848;2023-04-03T00:47:22;5.20;;;3.75;;
47784;SDS011;35233;55.686;37.848;2023-04-03T00:49:48;6.43;;;4.38;;
47784;SDS011;35233;55.686;37.848;2023-04-03T00:52:16;7.88;;;4.00;;
47784;SDS011;35233;55.686;37.848;2023-04-03T00:54:45;5.97;;;3.90;;
47784;SDS011;35233;55.686;37.848;2023-04-03T00:57:12;5.80;;;3.88;;
47784;SDS011;35233;55.686;37.848;2023-04-03T00:59:41;6.53;;;4.07;;
47784;SDS011;35233;55.686;37.848;2023-04-03T01:02:11;5.00;;;3.88;;
47784;SDS011;35233;55.686;37.848;2023-04-03T01:04:37;5.63;;;4.00;;
47784;SDS011;35233;55.686;37.848;2023-04-03T01:07:26;5.20;;;3.83;;
47784;SDS011;35233;55.686;37.848;2023-04-03T01:09:53;4.97;;;3.58;;
47784;SDS011;35233;55.686;37.848;2023-04-03T01:14:51;5.88;;;3.85;;
47784;SDS011;35233;55.686;37.848;2023-04-03T01:17:24;5.88;;;3.72;;
47784;SDS011;35233;55.686;37.848;2023-04-03T01:19:53;4.90;;;3.63;;
47784;SDS011;35233;55.686;37.848;2023-04-03T01:22:42;5.13;;;3.80;;
47784;SDS011;35233;55.686;37.848;2023-04-03T01:25:15;5.93;;;4.05;;
47784;SDS011;35233;55.686;37.848;2023-04-03T01:27:41;7.00;;;3.80;;
47784;SDS011;35233;55.686;37.848;2023-04-03T01:30:06;5.90;;;4.00;;
47784;SDS011;35233;55.686;37.848;2023-04-03T01:32:33;5.82;;;3.70;;
47784;SDS011;35233;55.686;37.848;2023-04-03T01:34:58;5.30;;;3.70;;
47784;SDS011;35233;55.686;37.848;2023-04-03T01:37:24;5.88;;;4.07;;
47784;SDS011;35233;55.686;37.848;2023-04-03T01:39:49;5.93;;;3.75;;
47784;SDS011;35233;55.686;37.848;2023-04-03T01:42:15;5.95;;;4.00;;
47784;SDS011;35233;55.686;37.848;2023-04-03T01:44:40;4.45;;;3.55;;
47784;SDS011;35233;55.686;37.848;2023-04-03T01:47:06;6.05;;;3.97;;
47784;SDS011;35233;55.686;37.848;2023-04-03T01:49:32;5.10;;;3.72;;
47784;SDS011;35233;55.686;37.848;2023-04-03T01:51:57;5.72;;;3.80;;
47784;SDS011;35233;55.686;37.848;2023-04-03T01:54:23;5.28;;;3.60;;
47784;SDS011;35233;55.686;37.848;2023-04-03T01:56:48;5.80;;;3.85;;
47784;SDS011;35233;55.686;37.848;2023-04-03T01:59:14;5.72;;;4.00;;
47784;SDS011;35233;55.686;37.848;2023-04-03T02:01:42;6.03;;;3.80;;
47784;SDS011;35233;55.686;37.848;2023-04-03T02:04:10;6.45;;;3.80;;
47784;SDS011;35233;55.686;37.848;2023-04-03T02:06:36;5.43;;;3.85;;
47784;SDS011;35233;55.686;37.848;2023-04-03T02:09:01;5.20;;;3.72;;
47784;SDS011;35233;55.686;37.848;2023-04-03T02:11:28;6.63;;;3.97;;
47784;SDS011;35233;55.686;37.848;2023-04-03T02:13:53;5.70;;;3.47;;
47784;SDS011;35233;55.686;37.848;2023-04-03T02:16:18;5.53;;;3.70;;
47784;SDS011;35233;55.686;37.848;2023-04-03T02:18:44;5.70;;;3.92;;
47784;SDS011;35233;55.686;37.848;2023-04-03T02:21:09;4.57;;;3.58;;
47784;SDS011;35233;55.686;37.848;2023-04-03T02:23:35;5.47;;;3.80;;
47784;SDS011;35233;55.686;37.848;2023-04-03T02:26:06;5.00;;;4.03;;
47784;SDS011;35233;55.686;37.848;2023-04-03T02:28:33;5.25;;;3.80;;
47784;SDS011;35233;55.686;37.848;2023-04-03T02:30:59;5.05;;;3.75;;
47784;SDS011;35233;55.686;37.848;2023-04-03T02:33:25;5.15;;;3.88;;
47784;SDS011;35233;55.686;37.848;2023-04-03T02:35:54;5.80;;;4.07;;
47784;SDS011;35233;55.686;37.848;2023-04-03T02:38:21;5.47;;;3.70;;
47784;SDS011;35233;55.686;37.848;2023-04-03T02:40:46;5.30;;;4.00;;
47784;SDS011;35233;55.686;37.848;2023-04-03T02:43:12;5.30;;;3.83;;
47784;SDS011;35233;55.686;37.848;2023-04-03T02:45:37;5.68;;;3.60;;
47784;SDS011;35233;55.686;37.848;2023-04-03T02:48:03;5.38;;;3.85;;
47784;SDS011;35233;55.686;37.848;2023-04-03T02:50:29;5.38;;;3.42;;
47784;SDS011;35233;55.686;37.848;2023-04-03T02:52:54;6.60;;;3.90;;
47784;SDS011;35233;55.686;37.848;2023-04-03T02:55:20;5.32;;;3.60;;
47784;SDS011;35233;55.686;37.848;2023-04-03T02:57:45;5.80;;;3.78;;
47784;SDS011;35233;55.686;37.848;2023-04-03T03:00:11;5.55;;;3.75;;
47784;SDS011;35233;55.686;37.848;2023-04-03T03:02:37;6.03;;;3.88;;
47784;SDS011;35233;55.686;37.848;2023-04-03T03:05:02;5.75;;;3.95;;
47784;SDS011;35233;55.686;37.848;2023-04-03T03:07:28;5.10;;;3.80;;
47784;SDS011;35233;55.686;37.848;2023-04-03T03:09:53;4.90;;;3.67;;
47784;SDS011;35233;55.686;37.848;2023-04-03T03:12:19;5.18;;;3.58;;
47784;SDS011;35233;55.686;37.848;2023-04-03T03:14:46;4.50;;;3.50;;
47784;SDS011;35233;55.686;37.848;2023-04-03T03:17:13;4.22;;;3.22;;
47784;SDS011;35233;55.686;37.848;2023-04-03T03:19:39;5.07;;;3.58;;
47784;SDS011;35233;55.686;37.848;2023-04-03T03:22:04;5.20;;;3.72;;
47784;SDS011;35233;55.686;37.848;2023-04-03T03:24:30;5.05;;;3.72;;
47784;SDS011;35233;55.686;37.848;2023-04-03T03:26:55;4.93;;;3.63;;
47784;SDS011;35233;55.686;37.848;2023-04-03T03:29:21;5.97;;;3.78;;
47784;SDS011;35233;55.686;37.848;2023-04-03T03:31:46;5.50;;;3.50;;
47784;SDS011;35233;55.686;37.848;2023-04-03T03:34:12;6.38;;;4.20;;
47784;SDS011;35233;55.686;37.848;2023-04-03T03:36:38;4.90;;;3.53;;
47784;SDS011;35233;55.686;37.848;2023-04-03T03:39:03;4.90;;;3.88;;
47784;SDS011;35233;55.686;37.848;2023-04-03T03:41:29;6.05;;;3.72;;
47784;SDS011;35233;55.686;37.848;2023-04-03T03:43:54;4.95;;;3.70;;
47784;SDS011;35233;55.686;37.848;2023-04-03T03:46:20;5.15;;;4.20;;
47784;SDS011;35233;55.686;37.848;2023-04-03T03:48:45;4.80;;;3.50;;
47784;SDS011;35233;55.686;37.848;2023-04-03T03:51:11;5.85;;;3.50;;
47784;SDS011;35233;55.686;37.848;2023-04-03T03:53:36;4.72;;;3.70;;
47784;SDS011;35233;55.686;37.848;2023-04-03T03:56:02;5.97;;;3.88;;
47784;SDS011;35233;55.686;37.848;2023-04-03T03:58:28;7.13;;;4.07;;
47784;SDS011;35233;55.686;37.848;2023-04-03T04:00:54;4.05;;;3.30;;
47784;SDS011;35233;55.686;37.848;2023-04-03T04:03:20;4.80;;;3.53;;
47784;SDS011;35233;55.686;37.848;2023-04-03T04:05:46;5.18;;;3.50;;
47784;SDS011;35233;55.686;37.848;2023-04-03T04:08:11;4.72;;;3.53;;
47784;SDS011;35233;55.686;37.848;2023-04-03T04:10:37;5.43;;;3.70;;
47784;SDS011;35233;55.686;37.848;2023-04-03T04:13:03;7.15;;;3.75;;
47784;SDS011;35233;55.686;37.848;2023-04-03T04:15:29;6.95;;;3.80;;
47784;SDS011;35233;55.686;37.848;2023-04-03T04:17:54;5.32;;;3.67;;
47784;SDS011;35233;55.686;37.848;2023-04-03T04:20:20;6.45;;;4.13;;
47784;SDS011;35233;55.686;37.848;2023-04-03T04:22:45;5.97;;;3.65;;
47784;SDS011;35233;55.686;37.848;2023-04-03T04:25:11;5.40;;;4.03;;
47784;SDS011;35233;55.686;37.848;2023-04-03T04:27:37;6.15;;;4.07;;
47784;SDS011;35233;55.686;37.848;2023-04-03T04:30:03;5.18;;;3.85;;
47784;SDS011;35233;55.686;37.848;2023-04-03T04:32:29;5.57;;;3.90;;
47784;SDS011;35233;55.686;37.848;2023-04-03T04:34:55;6.85;;;4.00;;
47784;SDS011;35233;55.686;37.848;2023-04-03T04:37:20;10.38;;;4.32;;
47784;SDS011;35233;55.686;37.848;2023-04-03T04:39:46;8.65;;;3.97;;
47784;SDS011;35233;55.686;37.848;2023-04-03T04:42:11;8.30;;;4.75;;
47784;SDS011;35233;55.686;37.848;2023-04-03T04:44:38;9.05;;;4.70;;
47784;SDS011;35233;55.686;37.848;2023-04-03T04:47:04;11.25;;;5.03;;
47784;SDS011;35233;55.686;37.848;2023-04-03T04:49:30;7.53;;;4.25;;
47784;SDS011;35233;55.686;37.848;2023-04-03T04:51:55;9.82;;;4.68;;
47784;SDS011;35233;55.686;37.848;2023-04-03T04:54:21;9.23;;;5.00;;
47784;SDS011;35233;55.686;37.848;2023-04-03T04:56:46;11.05;;;5.30;;
47784;SDS011;35233;55.686;37.848;2023-04-03T04:59:12;9.00;;;5.35;;
47784;SDS011;35233;55.686;37.848;2023-04-03T05:01:38;9.77;;;5.82;;
47784;SDS011;35233;55.686;37.848;2023-04-03T05:04:04;12.20;;;5.88;;
47784;SDS011;35233;55.686;37.848;2023-04-03T05:06:29;10.13;;;5.50;;
47784;SDS011;35233;55.686;37.848;2023-04-03T05:08:56;13.48;;;7.85;;
47784;SDS011;35233;55.686;37.848;2023-04-03T05:11:22;15.35;;;8.80;;
47784;SDS011;35233;55.686;37.848;2023-04-03T05:13:48;11.55;;;7.55;;
47784;SDS011;35233;55.686;37.848;2023-04-03T05:16:13;11.35;;;7.53;;
47784;SDS011;35233;55.686;37.848;2023-04-03T05:18:57;11.03;;;7.67;;
47784;SDS011;35233;55.686;37.848;2023-04-03T05:21:41;10.55;;;7.53;;
47784;SDS011;35233;55.686;37.848;2023-04-03T05:24:06;14.30;;;7.50;;
47784;SDS011;35233;55.686;37.848;2023-04-03T05:26:34;9.98;;;6.97;;
47784;SDS011;35233;55.686;37.848;2023-04-03T05:28:59;11.85;;;7.22;;
47784;SDS011;35233;55.686;37.848;2023-04-03T05:31:25;11.40;;;7.30;;
47784;SDS011;35233;55.686;37.848;2023-04-03T05:33:54;11.77;;;6.40;;
47784;SDS011;35233;55.686;37.848;2023-04-03T05:36:20;10.35;;;6.85;;
47784;SDS011;35233;55.686;37.848;2023-04-03T05:38:46;11.18;;;6.20;;
47784;SDS011;35233;55.686;37.848;2023-04-03T05:43:55;8.85;;;5.88;;
47784;SDS011;35233;55.686;37.848;2023-04-03T05:46:21;11.70;;;6.53;;
47784;SDS011;35233;55.686;37.848;2023-04-03T05:48:47;12.02;;;6.95;;
47784;SDS011;35233;55.686;37.848;2023-04-03T05:51:17;10.35;;;6.65;;
47784;SDS011;35233;55.686;37.848;2023-04-03T05:53:48;11.48;;;6.03;;
47784;SDS011;35233;55.686;37.848;2023-04-03T05:56:17;12.88;;;6.55;;
47784;SDS011;35233;55.686;37.848;2023-04-03T05:58:42;11.20;;;6.15;;
47784;SDS011;35233;55.686;37.848;2023-04-03T06:01:08;10.85;;;6.53;;
47784;SDS011;35233;55.686;37.848;2023-04-03T06:03:34;10.90;;;6.18;;
47784;SDS011;35233;55.686;37.848;2023-04-03T06:06:01;11.57;;;6.07;;
47784;SDS011;35233;55.686;37.848;2023-04-03T06:08:47;7.18;;;5.63;;
47784;SDS011;35233;55.686;37.848;2023-04-03T06:11:12;10.30;;;5.53;;
47784;SDS011;35233;55.686;37.848;2023-04-03T06:13:38;8.20;;;6.00;;
47784;SDS011;35233;55.686;37.848;2023-04-03T06:16:04;10.43;;;5.82;;
47784;SDS011;35233;55.686;37.848;2023-04-03T06:18:49;11.63;;;5.72;;
47784;SDS011;35233;55.686;37.848;2023-04-03T06:21:15;10.45;;;5.90;;
47784;SDS011;35233;55.686;37.848;2023-04-03T06:23:40;8.05;;;5.75;;
47784;SDS011;35233;55.686;37.848;2023-04-03T06:26:06;10.50;;;5.35;;
47784;SDS011;35233;55.686;37.848;2023-04-03T06:28:32;8.93;;;5.63;;
47784;SDS011;35233;55.686;37.848;2023-04-03T06:30:57;9.35;;;5.40;;
47784;SDS011;35233;55.686;37.848;2023-04-03T06:33:23;8.93;;;5.72;;
47784;SDS011;35233;55.686;37.848;2023-04-03T06:35:49;10.13;;;5.72;;
47784;SDS011;35233;55.686;37.848;2023-04-03T06:38:15;7.97;;;5.53;;
47784;SDS011;35233;55.686;37.848;2023-04-03T06:40:41;7.97;;;5.15;;
47784;SDS011;35233;55.686;37.848;2023-04-03T06:43:06;8.70;;;5.30;;
47784;SDS011;35233;55.686;37.848;2023-04-03T06:45:32;9.15;;;5.20;;
47784;SDS011;35233;55.686;37.848;2023-04-03T06:47:58;7.90;;;5.20;;
47784;SDS011;35233;55.686;37.848;2023-04-03T06:50:23;9.90;;;5.55;;
47784;SDS011;35233;55.686;37.848;2023-04-03T06:52:49;7.53;;;4.65;;
47784;SDS011;35233;55.686;37.848;2023-04-03T06:55:15;7.72;;;5.00;;
47784;SDS011;35233;55.686;37.848;2023-04-03T06:57:40;7.40;;;5.35;;
47784;SDS011;35233;55.686;37.848;2023-04-03T07:00:06;7.75;;;4.82;;
47784;SDS011;35233;55.686;37.848;2023-04-03T07:02:33;7.97;;;5.55;;
47784;SDS011;35233;55.686;37.848;2023-04-03T07:04:59;8.55;;;5.28;;
47784;SDS011;35233;55.686;37.848;2023-04-03T07:07:24;7.40;;;4.80;;
47784;SDS011;35233;55.686;37.848;2023-04-03T07:09:50;7.70;;;5.20;;
47784;SDS011;35233;55.686;37.848;2023-04-03T07:12:16;7.03;;;4.55;;
47784;SDS011;35233;55.686;37.848;2023-04-03T07:14:41;7.13;;;4.88;;
47784;SDS011;35233;55.686;37.848;2023-04-03T07:17:07;6.45;;;4.50;;
47784;SDS011;35233;55.686;37.848;2023-04-03T07:19:33;6.90;;;4.30;;
47784;SDS011;35233;55.686;37.848;2023-04-03T07:21:58;7.50;;;4.82;;
47784;SDS011;35233;55.686;37.848;2023-04-03T07:24:24;7.78;;;4.70;;
47784;SDS011;35233;55.686;37.848;2023-04-03T07:26:50;8.10;;;5.15;;
47784;SDS011;35233;55.686;37.848;2023-04-03T07:29:16;7.50;;;4.55;;
47784;SDS011;35233;55.686;37.848;2023-04-03T07:31:42;7.90;;;4.22;;
47784;SDS011;35233;55.686;37.848;2023-04-03T07:34:08;6.95;;;5.15;;
47784;SDS011;35233;55.686;37.848;2023-04-03T07:36:33;9.20;;;4.88;;
47784;SDS011;35233;55.686;37.848;2023-04-03T07:38:59;8.45;;;4.85;;
47784;SDS011;35233;55.686;37.848;2023-04-03T07:41:24;8.85;;;5.13;;
47784;SDS011;35233;55.686;37.848;2023-04-03T07:43:50;7.63;;;4.32;;
47784;SDS011;35233;55.686;37.848;2023-04-03T07:46:15;7.65;;;4.38;;
47784;SDS011;35233;55.686;37.848;2023-04-03T07:48:42;7.95;;;4.75;;
47784;SDS011;35233;55.686;37.848;2023-04-03T07:51:09;7.90;;;4.97;;
47784;SDS011;35233;55.686;37.848;2023-04-03T07:53:35;5.63;;;4.32;;
47784;SDS011;35233;55.686;37.848;2023-04-03T07:56:01;9.70;;;4.70;;
47784;SDS011;35233;55.686;37.848;2023-04-03T07:58:28;8.00;;;4.22;;
47784;SDS011;35233;55.686;37.848;2023-04-03T08:00:54;7.78;;;4.72;;
47784;SDS011;35233;55.686;37.848;2023-04-03T08:03:21;7.75;;;4.20;;
47784;SDS011;35233;55.686;37.848;2023-04-03T08:05:48;7.13;;;4.53;;
47784;SDS011;35233;55.686;37.848;2023-04-03T08:08:15;7.65;;;4.88;;
47784;SDS011;35233;55.686;37.848;2023-04-03T08:10:53;8.45;;;4.60;;
47784;SDS011;35233;55.686;37.848;2023-04-03T08:13:19;7.47;;;4.40;;
47784;SDS011;35233;55.686;37.848;2023-04-03T08:15:46;7.32;;;4.50;;
47784;SDS011;35233;55.686;37.848;2023-04-03T08:18:12;8.02;;;4.35;;
47784;SDS011;35233;55.686;37.848;2023-04-03T08:20:38;6.55;;;4.45;;
47784;SDS011;35233;55.686;37.848;2023-04-03T08:23:05;8.60;;;4.65;;
47784;SDS011;35233;55.686;37.848;2023-04-03T08:25:31;6.85;;;4.55;;
47784;SDS011;35233;55.686;37.848;2023-04-03T08:28:00;8.68;;;4.70;;
47784;SDS011;35233;55.686;37.848;2023-04-03T08:30:27;8.07;;;4.65;;
47784;SDS011;35233;55.686;37.848;2023-04-03T08:32:58;6.80;;;4.45;;
47784;SDS011;35233;55.686;37.848;2023-04-03T08:35:29;7.25;;;4.85;;
47784;SDS011;35233;55.686;37.848;2023-04-03T08:37:55;6.88;;;4.25;;
47784;SDS011;35233;55.686;37.848;2023-04-03T08:40:23;7.13;;;4.60;;
47784;SDS011;35233;55.686;37.848;2023-04-03T08:43:03;6.35;;;4.35;;
47784;SDS011;35233;55.686;37.848;2023-04-03T08:48:20;5.72;;;4.63;;
47784;SDS011;35233;55.686;37.848;2023-04-03T08:50:53;6.78;;;5.00;;
47784;SDS011;35233;55.686;37.848;2023-04-03T08:53:25;8.55;;;4.50;;
47784;SDS011;35233;55.686;37.848;2023-04-03T08:55:53;8.02;;;4.35;;
47784;SDS011;35233;55.686;37.848;2023-04-03T08:58:28;7.18;;;4.30;;
47784;SDS011;35233;55.686;37.848;2023-04-03T09:00:57;5.30;;;4.20;;
47784;SDS011;35233;55.686;37.848;2023-04-03T09:03:41;6.60;;;4.63;;
47784;SDS011;35233;55.686;37.848;2023-04-03T09:06:11;7.65;;;4.57;;
47784;SDS011;35233;55.686;37.848;2023-04-03T09:09:04;7.30;;;4.53;;
47784;SDS011;35233;55.686;37.848;2023-04-03T09:11:53;8.82;;;4.10;;
47784;SDS011;35233;55.686;37.848;2023-04-03T09:17:24;6.67;;;4.53;;
47784;SDS011;35233;55.686;37.848;2023-04-03T09:20:00;7.13;;;4.57;;
47784;SDS011;35233;55.686;37.848;2023-04-03T09:22:46;9.35;;;5.63;;
47784;SDS011;35233;55.686;37.848;2023-04-03T09:25:17;9.90;;;4.82;;
47784;SDS011;35233;55.686;37.848;2023-04-03T09:27:47;8.13;;;4.77;;
47784;SDS011;35233;55.686;37.848;2023-04-03T09:30:16;7.68;;;4.95;;
47784;SDS011;35233;55.686;37.848;2023-04-03T09:32:47;9.07;;;5.22;;
47784;SDS011;35233;55.686;37.848;2023-04-03T09:35:27;9.18;;;5.20;;
47784;SDS011;35233;55.686;37.848;2023-04-03T09:40:35;7.78;;;4.75;;
47784;SDS011;35233;55.686;37.848;2023-04-03T09:43:19;9.93;;;5.15;;
47784;SDS011;35233;55.686;37.848;2023-04-03T09:45:47;9.80;;;4.82;;
47784;SDS011;35233;55.686;37.848;2023-04-03T09:48:16;6.28;;;4.60;;
47784;SDS011;35233;55.686;37.848;2023-04-03T09:53:37;7.43;;;4.38;;
47784;SDS011;35233;55.686;37.848;2023-04-03T09:59:02;6.45;;;4.30;;
47784;SDS011;35233;55.686;37.848;2023-04-03T10:01:32;7.97;;;5.03;;
47784;SDS011;35233;55.686;37.848;2023-04-03T10:04:15;8.15;;;4.85;;
47784;SDS011;35233;55.686;37.848;2023-04-03T10:06:51;10.23;;;5.82;;
47784;SDS011;35233;55.686;37.848;2023-04-03T10:14:57;7.47;;;4.47;;
47784;SDS011;35233;55.686;37.848;2023-04-03T10:20:18;7.40;;;4.88;;
47784;SDS011;35233;55.686;37.848;2023-04-03T10:23:00;8.93;;;4.70;;
47784;SDS011;35233;55.686;37.848;2023-04-03T10:28:22;7.50;;;4.35;;
47784;SDS011;35233;55.686;37.848;2023-04-03T10:31:29;6.45;;;4.40;;
47784;SDS011;35233;55.686;37.848;2023-04-03T10:34:06;6.97;;;4.50;;
47784;SDS011;35233;55.686;37.848;2023-04-03T10:42:11;6.57;;;4.30;;
47784;SDS011;35233;55.686;37.848;2023-04-03T10:47:40;7.05;;;4.75;;
47784;SDS011;35233;55.686;37.848;2023-04-03T10:50:39;6.65;;;4.68;;
47784;SDS011;35233;55.686;37.848;2023-04-03T10:53:52;5.85;;;4.38;;
47784;SDS011;35233;55.686;37.848;2023-04-03T11:05:53;8.23;;;4.13;;
47784;SDS011;35233;55.686;37.848;2023-04-03T11:07:55;8.07;;;5.07;;
47784;SDS011;35233;55.686;37.848;2023-04-03T11:10:46;9.23;;;5.22;;
47784;SDS011;35233;55.686;37.848;2023-04-03T11:16:13;9.05;;;6.43;;
47784;SDS011;35233;55.686;37.848;2023-04-03T11:18:49;8.60;;;7.07;;
47784;SDS011;35233;55.686;37.848;2023-04-03T11:21:33;10.02;;;7.25;;
47784;SDS011;35233;55.686;37.848;2023-04-03T11:24:04;13.63;;;8.75;;
47784;SDS011;35233;55.686;37.848;2023-04-03T11:26:39;12.40;;;9.90;;
47784;SDS011;35233;55.686;37.848;2023-04-03T11:29:12;11.68;;;9.52;;
47784;SDS011;35233;55.686;37.848;2023-04-03T11:34:42;13.32;;;11.65;;
47784;SDS011;35233;55.686;37.848;2023-04-03T11:40:21;14.73;;;12.52;;
47784;SDS011;35233;55.686;37.848;2023-04-03T11:47:54;16.75;;;14.18;;
47784;SDS011;35233;55.686;37.848;2023-04-03T11:50:46;17.95;;;14.30;;
47784;SDS011;35233;55.686;37.848;2023-04-03T12:01:09;19.45;;;16.38;;
47784;SDS011;35233;55.686;37.848;2023-04-03T12:21:21;22.08;;;16.17;;
47784;SDS011;35233;55.686;37.848;2023-04-03T12:40:15;18.70;;;16.27;;
47784;SDS011;35233;55.686;37.848;2023-04-03T12:42:57;17.38;;;15.45;;
47784;SDS011;35233;55.686;37.848;2023-04-03T12:48:46;17.70;;;15.82;;
47784;SDS011;35233;55.686;37.848;2023-04-03T12:51:17;17.88;;;15.57;;
47784;SDS011;35233;55.686;37.848;2023-04-03T12:53:46;19.13;;;15.50;;
47784;SDS011;35233;55.686;37.848;2023-04-03T12:56:27;18.55;;;16.10;;
47784;SDS011;35233;55.686;37.848;2023-04-03T12:59:13;18.42;;;15.48;;
47784;SDS011;35233;55.686;37.848;2023-04-03T13:01:53;22.73;;;18.40;;
47784;SDS011;35233;55.686;37.848;2023-04-03T13:06:46;25.45;;;22.10;;
47784;SDS011;35233;55.686;37.848;2023-04-03T13:09:27;29.50;;;24.35;;
47784;SDS011;35233;55.686;37.848;2023-04-03T13:12:15;34.75;;;28.80;;
47784;SDS011;35233;55.686;37.848;2023-04-03T13:14:51;38.50;;;31.95;;
47784;SDS011;35233;55.686;37.848;2023-04-03T13:17:20;40.95;;;34.78;;
47784;SDS011;35233;55.686;37.848;2023-04-03T13:19:46;41.80;;;36.13;;
47784;SDS011;35233;55.686;37.848;2023-04-03T13:22:22;45.85;;;38.97;;
47784;SDS011;35233;55.686;37.848;2023-04-03T13:24:59;47.97;;;40.78;;
47784;SDS011;35233;55.686;37.848;2023-04-03T13:27:30;51.70;;;43.70;;
47784;SDS011;35233;55.686;37.848;2023-04-03T13:29:57;50.97;;;43.92;;
47784;SDS011;35233;55.686;37.848;2023-04-03T13:32:26;49.05;;;42.13;;
47784;SDS011;35233;55.686;37.848;2023-04-03T13:34:53;51.33;;;43.33;;
47784;SDS011;35233;55.686;37.848;2023-04-03T13:37:29;49.95;;;43.17;;
47784;SDS011;35233;55.686;37.848;2023-04-03T13:40:02;51.60;;;44.20;;
47784;SDS011;35233;55.686;37.848;2023-04-03T13:42:38;53.60;;;45.72;;
47784;SDS011;35233;55.686;37.848;2023-04-03T13:45:27;52.47;;;45.42;;
47784;SDS011;35233;55.686;37.848;2023-04-03T13:48:10;50.97;;;44.60;;
47784;SDS011;35233;55.686;37.848;2023-04-03T13:50:50;49.72;;;44.13;;
47784;SDS011;35233;55.686;37.848;2023-04-03T13:53:27;49.97;;;43.92;;
47784;SDS011;35233;55.686;37.848;2023-04-03T13:56:04;53.13;;;45.80;;
47784;SDS011;35233;55.686;37.848;2023-04-03T13:58:31;53.95;;;45.90;;
47784;SDS011;35233;55.686;37.848;2023-04-03T14:04:00;54.97;;;45.65;;
47784;SDS011;35233;55.686;37.848;2023-04-03T14:06:34;54.05;;;46.00;;
47784;SDS011;35233;55.686;37.848;2023-04-03T14:09:00;52.42;;;46.30;;
47784;SDS011;35233;55.686;37.848;2023-04-03T14:11:28;52.38;;;45.97;;
47784;SDS011;35233;55.686;37.848;2023-04-03T14:13:55;52.55;;;45.33;;
47784;SDS011;35233;55.686;37.848;2023-04-03T14:16:27;52.35;;;44.25;;
47784;SDS011;35233;55.686;37.848;2023-04-03T14:19:06;49.28;;;43.67;;
47784;SDS011;35233;55.686;37.848;2023-04-03T14:21:31;49.72;;;43.70;;
47784;SDS011;35233;55.686;37.848;2023-04-03T14:23:57;49.97;;;44.15;;
47784;SDS011;35233;55.686;37.848;2023-04-03T14:26:23;49.75;;;43.60;;
47784;SDS011;35233;55.686;37.848;2023-04-03T14:28:52;48.15;;;42.72;;
47784;SDS011;35233;55.686;37.848;2023-04-03T14:31:20;48.30;;;43.00;;
47784;SDS011;35233;55.686;37.848;2023-04-03T14:33:47;49.58;;;43.58;;
47784;SDS011;35233;55.686;37.848;2023-04-03T14:36:23;47.38;;;40.70;;
47784;SDS011;35233;55.686;37.848;2023-04-03T14:38:52;46.53;;;41.03;;
47784;SDS011;35233;55.686;37.848;2023-04-03T14:41:19;45.42;;;40.13;;
47784;SDS011;35233;55.686;37.848;2023-04-03T14:43:47;46.03;;;40.15;;
47784;SDS011;35233;55.686;37.848;2023-04-03T14:46:14;46.58;;;39.85;;
47784;SDS011;35233;55.686;37.848;2023-04-03T14:49:01;44.25;;;38.28;;
47784;SDS011;35233;55.686;37.848;2023-04-03T14:51:27;45.72;;;38.42;;
47784;SDS011;35233;55.686;37.848;2023-04-03T14:53:52;44.90;;;38.42;;
47784;SDS011;35233;55.686;37.848;2023-04-03T14:56:27;42.05;;;35.95;;
47784;SDS011;35233;55.686;37.848;2023-04-03T14:58:57;43.20;;;36.45;;
47784;SDS011;35233;55.686;37.848;2023-04-03T15:01:25;41.90;;;36.97;;
47784;SDS011;35233;55.686;37.848;2023-04-03T15:03:51;40.25;;;35.85;;
47784;SDS011;35233;55.686;37.848;2023-04-03T15:06:17;42.30;;;36.25;;
47784;SDS011;35233;55.686;37.848;2023-04-03T15:08:43;40.38;;;35.83;;
47784;SDS011;35233;55.686;37.848;2023-04-03T15:11:10;38.88;;;34.63;;
47784;SDS011;35233;55.686;37.848;2023-04-03T15:13:37;40.17;;;34.38;;
47784;SDS011;35233;55.686;37.848;2023-04-03T15:16:03;39.15;;;34.85;;
47784;SDS011;35233;55.686;37.848;2023-04-03T15:18:33;40.72;;;34.80;;
47784;SDS011;35233;55.686;37.848;2023-04-03T15:21:03;43.45;;;35.45;;
47784;SDS011;35233;55.686;37.848;2023-04-03T15:23:29;40.95;;;35.30;;
47784;SDS011;35233;55.686;37.848;2023-04-03T15:25:55;37.13;;;32.75;;
47784;SDS011;35233;55.686;37.848;2023-04-03T15:28:28;38.35;;;32.53;;
47784;SDS011;35233;55.686;37.848;2023-04-03T15:30:57;37.72;;;32.05;;
47784;SDS011;35233;55.686;37.848;2023-04-03T15:33:24;38.30;;;31.80;;
47784;SDS011;35233;55.686;37.848;2023-04-03T15:35:50;39.90;;;31.85;;
47784;SDS011;35233;55.686;37.848;2023-04-03T15:38:16;37.95;;;30.95;;
47784;SDS011;35233;55.686;37.848;2023-04-03T15:40:41;36.13;;;30.95;;
47784;SDS011;35233;55.686;37.848;2023-04-03T15:43:08;34.53;;;30.30;;
47784;SDS011;35233;55.686;37.848;2023-04-03T15:45:35;38.92;;;30.15;;
47784;SDS011;35233;55.686;37.848;2023-04-03T15:48:02;39.63;;;29.70;;
47784;SDS011;35233;55.686;37.848;2023-04-03T15:50:29;37.47;;;28.13;;
47784;SDS011;35233;55.686;37.848;2023-04-03T15:52:54;34.40;;;28.08;;
47784;SDS011;35233;55.686;37.848;2023-04-03T15:55:30;31.35;;;25.77;;
47784;SDS011;35233;55.686;37.848;2023-04-03T15:57:57;26.23;;;22.60;;
47784;SDS011;35233;55.686;37.848;2023-04-03T16:00:24;28.75;;;21.67;;
47784;SDS011;35233;55.686;37.848;2023-04-03T16:02:51;24.10;;;20.63;;
47784;SDS011;35233;55.686;37.848;2023-04-03T16:05:21;28.90;;;19.80;;
47784;SDS011;35233;55.686;37.848;2023-04-03T16:07:47;23.38;;;17.88;;
47784;SDS011;35233;55.686;37.848;2023-04-03T16:10:13;21.40;;;16.52;;
47784;SDS011;35233;55.686;37.848;2023-04-03T16:12:41;22.27;;;17.17;;
47784;SDS011;35233;55.686;37.848;2023-04-03T16:15:07;20.33;;;15.77;;
47784;SDS011;35233;55.686;37.848;2023-04-03T16:17:33;18.70;;;15.50;;
47784;SDS011;35233;55.686;37.848;2023-04-03T16:20:00;18.63;;;15.10;;
47784;SDS011;35233;55.686;37.848;2023-04-03T16:22:28;18.77;;;13.77;;
47784;SDS011;35233;55.686;37.848;2023-04-03T16:24:54;18.05;;;14.05;;
47784;SDS011;35233;55.686;37.848;2023-04-03T16:27:20;20.58;;;13.32;;
47784;SDS011;35233;55.686;37.848;2023-04-03T16:29:47;16.70;;;12.35;;
47784;SDS011;35233;55.686;37.848;2023-04-03T16:32:13;17.90;;;11.88;;